Huvudsida
METAR-TAF:

METAR-TAF

Flygplatser :

Torsby flygplats

Torsby, Sverige

latitud: 60-09-17N, longitud: 12-59-40E, höjd: 120 m

Aktuellt väderrapport

Denna rapport gjordes för 22 minuter sedan, klockan 22:20 UTC
Vind 2 kt från nord
Temperatur 0°C
Fuktighet 100%
Tryck 1005 hPa
Sikt 10 km eller mer

METAR: ESST 112220Z AUTO 35002KT 9999 OVC004/// M00/M00 Q1005

Tid: 23:42 (22:42 UTC)


TAF: saknas

Aktuella väderrapporter och prognoser från 4000 flygplatser (METAR- och TAF-rapporter).

De tillgängliga stationerna syns som gula och röda prickar på kartan.

För musen över prickarna för att se namnen på stationerna.

Klicka sedan för att få väderrapporter och prognoser.

För att ändra kartan: Klicka på de gröna knapparna med ett svart kors på för att zooma in; den gröna knappen med ett streck på för att zooma ut; eller på de gröna pilarna för angränsande kartor.


METAR-TAF: